Green Bay, WI

5:22 PM CDT on August 30, 2014 (GMT -0500)
Red Smith Area | Change Station
CLOSE
Current Station
Personal Weather Station
Location: Green Bay, WI
Elevation: 702 ft
Nearby Weather Stations

Elev 702 ft 44.54 °N, 87.90 °W | Updated 52 seconds ago

Partly Cloudy
Partly Cloudy
74.7 °F
Feels Like 75 °F
N
9.0
Wind Variable Wind from WNW

Today
High -- | Low -- °F
--% Chance of Precip.
Yesterday
High -- | Low -- °F
Precip. -- in
6:11 AM 7:31 PM
Waxing Crescent, 25% visible
Pressure 29.76 in
Visibility 10.0 miles
Clouds Few 2100 ft
Scattered Clouds 2700 ft
Mostly Cloudy 6000 ft
Heat Index 75 °F
Dew Point 68 °F
Humidity 79%
Rainfall 0.11 in
Snow Depth Not available.
UV 1 out of 12
Pollen .20 out of 12
Ozone Good
PM2.5 Good
Flu Activity Not available.
METAR KGRB 302153Z 30014G22KT 10SM FEW021 SCT027 BKN060 23/19 A2976 RMK AO2 SLP077 T02280194

More Conditions Fewer Conditions

Pressure 29.76 in
Visibility 10.0 miles
Clouds Few 2100 ft
Scattered Clouds 2700 ft
Mostly Cloudy 6000 ft
Heat Index 75 °F
Dew Point 68 °F
Humidity 79%
Rainfall 0.11 in
Snow Depth Not available.
UV 1 out of 12
Pollen .20 out of 12
Ozone Good
PM2.5 Good
Flu Activity Not available.
METAR KGRB 302153Z 30014G22KT 10SM FEW021 SCT027 BKN060 23/19 A2976 RMK AO2 SLP077 T02280194

More Conditions Fewer Conditions

10-Day Weather Forecast

Almanac

Astronomy

Aug. 30, 2014 Rise Set
Actual Time 6:11 AM CDT 7:31 PM CDT
Civil Twilight 5:41 AM CDT 8:01 PM CDT
Nautical Twilight 5:04 AM CDT 8:37 PM CDT
Astronomical Twilight 4:26 AM CDT 9:16 PM CDT
Moon 11:11 AM CDT 9:51 PM CDT
Length of Visible Light 14h 20m
Length of Day
13h 19m
Tomorrow will be 2m 57s shorter.
Waxing Crescent, 25% of the Moon is Illuminated
Today
Waxing Crescent
Sep 2
First Quarter
Sep 8
Full
Sep 15
Last Quarter
Sep 24
New

Today's Extremes

State Highs State Lows

Community

WunderPhotos

Upload Photos

1,748,657 photos uploaded!

WunderBlogs® & News

Nearby

Air Quality

  Air Quality AQ Index Pollutant
Yesterday Good
PM2.5
Yesterday Good
OZONE
Current Good
OZONE
Current Good
PM2.5
Saturday Good
OZONE
Saturday Good
PM2.5
Sunday Moderate
OZONE
Sunday Moderate
PM2.5
Monday Good
OZONE
Monday Good
PM2.5
Tuesday Good
OZONE
Tuesday Good
PM2.5

Snow Depth

Station Depth Elevation
No new snow has been reported.

Earthquake Activity

City Distance Mag. Time & Date
No recent earthquake activity has been reported nearby.
Minimum magnitude displayed is 2.5.

Coastal Water Temperatures

Place Temperature
Menominee, MI 71.1 °F

Nearby Weather Stations